sensor_id;sensor_type;location;lat;lon;timestamp;P1;durP1;ratioP1;P2;durP2;ratioP2
20894;SDS011;10607;42.066;24.742;2023-05-27T00:01:23;3.75;;;3.10;;
20894;SDS011;10607;42.066;24.742;2023-05-27T00:03:49;2.92;;;2.33;;
20894;SDS011;10607;42.066;24.742;2023-05-27T00:06:14;3.22;;;2.53;;
20894;SDS011;10607;42.066;24.742;2023-05-27T00:08:39;6.18;;;2.28;;
20894;SDS011;10607;42.066;24.742;2023-05-27T00:11:04;4.07;;;2.63;;
20894;SDS011;10607;42.066;24.742;2023-05-27T00:13:30;3.55;;;2.58;;
20894;SDS011;10607;42.066;24.742;2023-05-27T00:15:55;5.15;;;2.53;;
20894;SDS011;10607;42.066;24.742;2023-05-27T00:18:21;5.05;;;2.35;;
20894;SDS011;10607;42.066;24.742;2023-05-27T00:20:46;3.53;;;2.65;;
20894;SDS011;10607;42.066;24.742;2023-05-27T00:23:13;4.13;;;2.88;;
20894;SDS011;10607;42.066;24.742;2023-05-27T00:25:38;5.05;;;2.90;;
20894;SDS011;10607;42.066;24.742;2023-05-27T00:28:04;11.07;;;4.10;;
20894;SDS011;10607;42.066;24.742;2023-05-27T00:30:29;5.40;;;3.38;;
20894;SDS011;10607;42.066;24.742;2023-05-27T00:32:55;6.07;;;3.22;;
20894;SDS011;10607;42.066;24.742;2023-05-27T00:35:20;4.13;;;2.97;;
20894;SDS011;10607;42.066;24.742;2023-05-27T00:37:45;3.58;;;3.15;;
20894;SDS011;10607;42.066;24.742;2023-05-27T00:40:11;4.10;;;3.42;;
20894;SDS011;10607;42.066;24.742;2023-05-27T00:42:37;4.70;;;2.92;;
20894;SDS011;10607;42.066;24.742;2023-05-27T00:45:03;4.13;;;3.38;;
20894;SDS011;10607;42.066;24.742;2023-05-27T00:47:29;4.35;;;2.70;;
20894;SDS011;10607;42.066;24.742;2023-05-27T00:49:55;4.38;;;2.60;;
20894;SDS011;10607;42.066;24.742;2023-05-27T00:52:20;3.95;;;2.67;;
20894;SDS011;10607;42.066;24.742;2023-05-27T00:54:45;3.88;;;2.65;;
20894;SDS011;10607;42.066;24.742;2023-05-27T00:57:11;4.75;;;2.72;;
20894;SDS011;10607;42.066;24.742;2023-05-27T00:59:36;4.20;;;2.80;;
20894;SDS011;10607;42.066;24.742;2023-05-27T01:02:01;3.80;;;2.90;;
20894;SDS011;10607;42.066;24.742;2023-05-27T01:04:27;3.90;;;3.35;;
20894;SDS011;10607;42.066;24.742;2023-05-27T01:09:24;5.70;;;2.53;;
20894;SDS011;10607;42.066;24.742;2023-05-27T01:11:58;4.68;;;3.08;;
20894;SDS011;10607;42.066;24.742;2023-05-27T01:14:24;3.72;;;2.97;;
20894;SDS011;10607;42.066;24.742;2023-05-27T01:16:50;3.65;;;2.70;;
20894;SDS011;10607;42.066;24.742;2023-05-27T01:19:19;5.60;;;2.85;;
20894;SDS011;10607;42.066;24.742;2023-05-27T01:21:47;6.65;;;2.95;;
20894;SDS011;10607;42.066;24.742;2023-05-27T01:24:12;3.97;;;2.80;;
20894;SDS011;10607;42.066;24.742;2023-05-27T01:26:38;5.07;;;3.03;;
20894;SDS011;10607;42.066;24.742;2023-05-27T01:29:03;4.38;;;2.75;;
20894;SDS011;10607;42.066;24.742;2023-05-27T01:31:40;5.32;;;2.95;;
20894;SDS011;10607;42.066;24.742;2023-05-27T01:34:06;3.38;;;2.85;;
20894;SDS011;10607;42.066;24.742;2023-05-27T01:36:36;6.78;;;3.47;;
20894;SDS011;10607;42.066;24.742;2023-05-27T01:39:03;7.53;;;2.92;;
20894;SDS011;10607;42.066;24.742;2023-05-27T01:41:30;3.42;;;2.85;;
20894;SDS011;10607;42.066;24.742;2023-05-27T01:43:56;5.07;;;3.40;;
20894;SDS011;10607;42.066;24.742;2023-05-27T01:46:21;3.83;;;2.80;;
20894;SDS011;10607;42.066;24.742;2023-05-27T01:48:47;3.60;;;3.13;;
20894;SDS011;10607;42.066;24.742;2023-05-27T01:51:12;4.38;;;3.00;;
20894;SDS011;10607;42.066;24.742;2023-05-27T01:53:38;4.47;;;3.08;;
20894;SDS011;10607;42.066;24.742;2023-05-27T01:56:03;5.20;;;2.97;;
20894;SDS011;10607;42.066;24.742;2023-05-27T01:58:28;5.45;;;2.90;;
20894;SDS011;10607;42.066;24.742;2023-05-27T02:00:53;3.58;;;2.65;;
20894;SDS011;10607;42.066;24.742;2023-05-27T02:03:19;6.55;;;3.65;;
20894;SDS011;10607;42.066;24.742;2023-05-27T02:05:44;4.18;;;3.42;;
20894;SDS011;10607;42.066;24.742;2023-05-27T02:08:10;4.53;;;3.15;;
20894;SDS011;10607;42.066;24.742;2023-05-27T02:10:36;5.05;;;3.25;;
20894;SDS011;10607;42.066;24.742;2023-05-27T02:13:01;4.28;;;3.03;;
20894;SDS011;10607;42.066;24.742;2023-05-27T02:15:27;8.45;;;3.28;;
20894;SDS011;10607;42.066;24.742;2023-05-27T02:17:52;6.65;;;3.40;;
20894;SDS011;10607;42.066;24.742;2023-05-27T02:20:21;4.68;;;3.45;;
20894;SDS011;10607;42.066;24.742;2023-05-27T02:22:46;5.25;;;3.22;;
20894;SDS011;10607;42.066;24.742;2023-05-27T02:25:11;4.00;;;3.40;;
20894;SDS011;10607;42.066;24.742;2023-05-27T02:27:36;4.35;;;3.17;;
20894;SDS011;10607;42.066;24.742;2023-05-27T02:30:02;4.50;;;3.67;;
20894;SDS011;10607;42.066;24.742;2023-05-27T02:32:27;8.02;;;3.88;;
20894;SDS011;10607;42.066;24.742;2023-05-27T02:34:52;6.70;;;3.30;;
20894;SDS011;10607;42.066;24.742;2023-05-27T02:37:18;6.47;;;2.95;;
20894;SDS011;10607;42.066;24.742;2023-05-27T02:39:43;3.55;;;2.72;;
20894;SDS011;10607;42.066;24.742;2023-05-27T02:42:08;5.55;;;3.33;;
20894;SDS011;10607;42.066;24.742;2023-05-27T02:44:33;6.15;;;3.15;;
20894;SDS011;10607;42.066;24.742;2023-05-27T02:46:59;5.07;;;3.70;;
20894;SDS011;10607;42.066;24.742;2023-05-27T02:49:24;9.80;;;4.05;;
20894;SDS011;10607;42.066;24.742;2023-05-27T02:51:49;4.65;;;3.53;;
20894;SDS011;10607;42.066;24.742;2023-05-27T02:54:16;8.75;;;3.70;;
20894;SDS011;10607;42.066;24.742;2023-05-27T02:56:41;3.97;;;3.25;;
20894;SDS011;10607;42.066;24.742;2023-05-27T02:59:06;5.18;;;3.10;;
20894;SDS011;10607;42.066;24.742;2023-05-27T03:01:31;6.25;;;3.25;;
20894;SDS011;10607;42.066;24.742;2023-05-27T03:03:57;4.97;;;3.63;;
20894;SDS011;10607;42.066;24.742;2023-05-27T03:06:22;5.80;;;3.35;;
20894;SDS011;10607;42.066;24.742;2023-05-27T03:08:47;5.28;;;3.10;;
20894;SDS011;10607;42.066;24.742;2023-05-27T03:11:13;6.00;;;3.50;;
20894;SDS011;10607;42.066;24.742;2023-05-27T03:13:38;6.85;;;3.50;;
20894;SDS011;10607;42.066;24.742;2023-05-27T03:16:03;5.47;;;3.40;;
20894;SDS011;10607;42.066;24.742;2023-05-27T03:18:29;3.78;;;3.30;;
20894;SDS011;10607;42.066;24.742;2023-05-27T03:20:54;8.82;;;3.30;;
20894;SDS011;10607;42.066;24.742;2023-05-27T03:23:19;4.10;;;3.40;;
20894;SDS011;10607;42.066;24.742;2023-05-27T03:25:45;6.57;;;3.15;;
20894;SDS011;10607;42.066;24.742;2023-05-27T03:28:10;4.70;;;3.05;;
20894;SDS011;10607;42.066;24.742;2023-05-27T03:30:35;10.30;;;3.13;;
20894;SDS011;10607;42.066;24.742;2023-05-27T03:33:01;4.45;;;3.33;;
20894;SDS011;10607;42.066;24.742;2023-05-27T03:35:26;5.53;;;3.20;;
20894;SDS011;10607;42.066;24.742;2023-05-27T03:37:52;5.85;;;3.20;;
20894;SDS011;10607;42.066;24.742;2023-05-27T03:40:17;2.90;;;2.60;;
20894;SDS011;10607;42.066;24.742;2023-05-27T03:42:42;3.50;;;2.95;;
20894;SDS011;10607;42.066;24.742;2023-05-27T03:45:08;6.68;;;3.20;;
20894;SDS011;10607;42.066;24.742;2023-05-27T03:47:33;5.63;;;3.20;;
20894;SDS011;10607;42.066;24.742;2023-05-27T03:50:00;3.30;;;2.88;;
20894;SDS011;10607;42.066;24.742;2023-05-27T03:52:25;4.25;;;3.00;;
20894;SDS011;10607;42.066;24.742;2023-05-27T03:54:50;4.50;;;2.65;;
20894;SDS011;10607;42.066;24.742;2023-05-27T03:57:15;5.80;;;2.70;;
20894;SDS011;10607;42.066;24.742;2023-05-27T03:59:41;5.75;;;2.42;;
20894;SDS011;10607;42.066;24.742;2023-05-27T04:02:06;4.28;;;2.50;;
20894;SDS011;10607;42.066;24.742;2023-05-27T04:04:31;6.30;;;2.28;;
20894;SDS011;10607;42.066;24.742;2023-05-27T04:06:57;4.95;;;3.70;;
20894;SDS011;10607;42.066;24.742;2023-05-27T04:09:22;2.80;;;2.55;;
20894;SDS011;10607;42.066;24.742;2023-05-27T04:11:47;4.32;;;2.60;;
20894;SDS011;10607;42.066;24.742;2023-05-27T04:14:12;5.20;;;2.65;;
20894;SDS011;10607;42.066;24.742;2023-05-27T04:16:38;5.25;;;2.80;;
20894;SDS011;10607;42.066;24.742;2023-05-27T04:19:06;5.82;;;3.17;;
20894;SDS011;10607;42.066;24.742;2023-05-27T04:21:32;3.58;;;2.72;;
20894;SDS011;10607;42.066;24.742;2023-05-27T04:23:57;6.18;;;2.75;;
20894;SDS011;10607;42.066;24.742;2023-05-27T04:26:22;4.70;;;2.50;;
20894;SDS011;10607;42.066;24.742;2023-05-27T04:28:48;4.53;;;2.28;;
20894;SDS011;10607;42.066;24.742;2023-05-27T04:31:13;3.88;;;2.67;;
20894;SDS011;10607;42.066;24.742;2023-05-27T04:33:41;3.47;;;2.45;;
20894;SDS011;10607;42.066;24.742;2023-05-27T04:36:06;4.53;;;2.90;;
20894;SDS011;10607;42.066;24.742;2023-05-27T04:38:32;3.92;;;2.42;;
20894;SDS011;10607;42.066;24.742;2023-05-27T04:40:57;7.22;;;2.58;;
20894;SDS011;10607;42.066;24.742;2023-05-27T04:43:23;4.28;;;2.35;;
20894;SDS011;10607;42.066;24.742;2023-05-27T04:45:51;3.78;;;2.53;;
20894;SDS011;10607;42.066;24.742;2023-05-27T04:48:16;6.53;;;3.03;;
20894;SDS011;10607;42.066;24.742;2023-05-27T04:50:41;7.47;;;2.83;;
20894;SDS011;10607;42.066;24.742;2023-05-27T04:53:07;4.05;;;2.72;;
20894;SDS011;10607;42.066;24.742;2023-05-27T04:55:33;7.75;;;3.22;;
20894;SDS011;10607;42.066;24.742;2023-05-27T04:57:58;4.13;;;2.47;;
20894;SDS011;10607;42.066;24.742;2023-05-27T05:00:24;6.10;;;3.40;;
20894;SDS011;10607;42.066;24.742;2023-05-27T05:03:01;5.80;;;2.85;;
20894;SDS011;10607;42.066;24.742;2023-05-27T05:05:27;3.70;;;2.83;;
20894;SDS011;10607;42.066;24.742;2023-05-27T05:07:53;7.28;;;4.38;;
20894;SDS011;10607;42.066;24.742;2023-05-27T05:10:18;8.05;;;3.83;;
20894;SDS011;10607;42.066;24.742;2023-05-27T05:12:43;5.18;;;3.28;;
20894;SDS011;10607;42.066;24.742;2023-05-27T05:15:09;4.65;;;3.13;;
20894;SDS011;10607;42.066;24.742;2023-05-27T05:17:34;6.32;;;3.85;;
20894;SDS011;10607;42.066;24.742;2023-05-27T05:19:59;5.13;;;3.55;;
20894;SDS011;10607;42.066;24.742;2023-05-27T05:22:25;7.70;;;3.22;;
20894;SDS011;10607;42.066;24.742;2023-05-27T05:24:52;8.68;;;3.30;;
20894;SDS011;10607;42.066;24.742;2023-05-27T05:27:18;4.15;;;3.42;;
20894;SDS011;10607;42.066;24.742;2023-05-27T05:29:43;4.68;;;3.38;;
20894;SDS011;10607;42.066;24.742;2023-05-27T05:32:09;3.50;;;3.10;;
20894;SDS011;10607;42.066;24.742;2023-05-27T05:34:36;9.02;;;3.50;;
20894;SDS011;10607;42.066;24.742;2023-05-27T05:37:02;4.78;;;3.22;;
20894;SDS011;10607;42.066;24.742;2023-05-27T05:39:27;4.40;;;3.45;;
20894;SDS011;10607;42.066;24.742;2023-05-27T05:41:52;5.72;;;3.05;;
20894;SDS011;10607;42.066;24.742;2023-05-27T05:44:18;7.72;;;3.95;;
20894;SDS011;10607;42.066;24.742;2023-05-27T05:46:43;8.25;;;3.17;;
20894;SDS011;10607;42.066;24.742;2023-05-27T05:49:08;5.80;;;3.60;;
20894;SDS011;10607;42.066;24.742;2023-05-27T05:51:34;9.63;;;3.65;;
20894;SDS011;10607;42.066;24.742;2023-05-27T05:54:00;10.30;;;3.83;;
20894;SDS011;10607;42.066;24.742;2023-05-27T05:56:25;4.82;;;3.20;;
20894;SDS011;10607;42.066;24.742;2023-05-27T05:58:51;3.28;;;2.65;;
20894;SDS011;10607;42.066;24.742;2023-05-27T06:01:16;5.60;;;2.85;;
20894;SDS011;10607;42.066;24.742;2023-05-27T06:03:41;3.80;;;2.80;;
20894;SDS011;10607;42.066;24.742;2023-05-27T06:06:07;7.00;;;2.88;;
20894;SDS011;10607;42.066;24.742;2023-05-27T06:08:33;7.22;;;3.10;;
20894;SDS011;10607;42.066;24.742;2023-05-27T06:10:58;5.28;;;2.92;;
20894;SDS011;10607;42.066;24.742;2023-05-27T06:13:23;6.28;;;2.67;;
20894;SDS011;10607;42.066;24.742;2023-05-27T06:15:48;5.22;;;3.20;;
20894;SDS011;10607;42.066;24.742;2023-05-27T06:18:14;7.07;;;3.15;;
20894;SDS011;10607;42.066;24.742;2023-05-27T06:20:39;9.18;;;3.55;;
20894;SDS011;10607;42.066;24.742;2023-05-27T06:23:04;7.85;;;3.40;;
20894;SDS011;10607;42.066;24.742;2023-05-27T06:25:30;5.40;;;2.80;;
20894;SDS011;10607;42.066;24.742;2023-05-27T06:27:55;7.35;;;3.97;;
20894;SDS011;10607;42.066;24.742;2023-05-27T06:30:21;4.45;;;2.95;;
20894;SDS011;10607;42.066;24.742;2023-05-27T06:32:46;4.85;;;3.13;;
20894;SDS011;10607;42.066;24.742;2023-05-27T06:35:11;13.85;;;3.22;;
20894;SDS011;10607;42.066;24.742;2023-05-27T06:37:36;8.55;;;3.38;;
20894;SDS011;10607;42.066;24.742;2023-05-27T06:40:02;5.65;;;2.83;;
20894;SDS011;10607;42.066;24.742;2023-05-27T06:42:27;5.93;;;3.00;;
20894;SDS011;10607;42.066;24.742;2023-05-27T06:44:52;8.38;;;2.80;;
20894;SDS011;10607;42.066;24.742;2023-05-27T06:47:18;12.10;;;3.38;;
20894;SDS011;10607;42.066;24.742;2023-05-27T06:49:43;6.15;;;2.60;;
20894;SDS011;10607;42.066;24.742;2023-05-27T06:52:09;8.70;;;2.83;;
20894;SDS011;10607;42.066;24.742;2023-05-27T06:54:34;4.85;;;3.15;;
20894;SDS011;10607;42.066;24.742;2023-05-27T06:56:59;11.75;;;2.90;;
20894;SDS011;10607;42.066;24.742;2023-05-27T06:59:25;5.47;;;2.40;;
20894;SDS011;10607;42.066;24.742;2023-05-27T07:01:50;7.00;;;2.92;;
20894;SDS011;10607;42.066;24.742;2023-05-27T07:04:15;3.80;;;2.95;;
20894;SDS011;10607;42.066;24.742;2023-05-27T07:06:42;5.43;;;3.10;;
20894;SDS011;10607;42.066;24.742;2023-05-27T07:09:07;8.30;;;3.30;;
20894;SDS011;10607;42.066;24.742;2023-05-27T07:11:33;5.90;;;2.90;;
20894;SDS011;10607;42.066;24.742;2023-05-27T07:13:58;6.55;;;3.17;;
20894;SDS011;10607;42.066;24.742;2023-05-27T07:16:23;5.82;;;3.70;;
20894;SDS011;10607;42.066;24.742;2023-05-27T07:18:49;8.35;;;3.28;;
20894;SDS011;10607;42.066;24.742;2023-05-27T07:21:14;4.60;;;3.53;;
20894;SDS011;10607;42.066;24.742;2023-05-27T07:23:39;5.57;;;3.28;;
20894;SDS011;10607;42.066;24.742;2023-05-27T07:26:05;7.13;;;3.75;;
20894;SDS011;10607;42.066;24.742;2023-05-27T07:28:31;4.78;;;3.28;;
20894;SDS011;10607;42.066;24.742;2023-05-27T07:30:57;7.03;;;3.28;;
20894;SDS011;10607;42.066;24.742;2023-05-27T07:33:22;6.75;;;3.33;;
20894;SDS011;10607;42.066;24.742;2023-05-27T07:35:47;4.55;;;3.30;;
20894;SDS011;10607;42.066;24.742;2023-05-27T07:38:14;9.80;;;3.63;;
20894;SDS011;10607;42.066;24.742;2023-05-27T07:40:39;6.07;;;3.80;;
20894;SDS011;10607;42.066;24.742;2023-05-27T07:43:04;4.63;;;3.60;;
20894;SDS011;10607;42.066;24.742;2023-05-27T07:45:30;8.77;;;3.50;;
20894;SDS011;10607;42.066;24.742;2023-05-27T07:47:55;7.25;;;3.90;;
20894;SDS011;10607;42.066;24.742;2023-05-27T07:50:21;6.13;;;3.75;;
20894;SDS011;10607;42.066;24.742;2023-05-27T07:52:46;7.85;;;4.22;;
20894;SDS011;10607;42.066;24.742;2023-05-27T07:55:11;9.27;;;4.10;;
20894;SDS011;10607;42.066;24.742;2023-05-27T07:57:37;10.07;;;4.53;;
20894;SDS011;10607;42.066;24.742;2023-05-27T08:00:03;8.15;;;4.45;;
20894;SDS011;10607;42.066;24.742;2023-05-27T08:02:30;9.43;;;4.35;;
20894;SDS011;10607;42.066;24.742;2023-05-27T08:04:55;12.00;;;4.30;;
20894;SDS011;10607;42.066;24.742;2023-05-27T08:07:21;5.18;;;3.70;;
20894;SDS011;10607;42.066;24.742;2023-05-27T08:09:46;5.82;;;3.78;;
20894;SDS011;10607;42.066;24.742;2023-05-27T08:12:11;4.53;;;3.75;;
20894;SDS011;10607;42.066;24.742;2023-05-27T08:14:38;6.32;;;3.80;;
20894;SDS011;10607;42.066;24.742;2023-05-27T08:17:03;4.65;;;3.53;;
20894;SDS011;10607;42.066;24.742;2023-05-27T08:19:28;4.38;;;3.47;;
20894;SDS011;10607;42.066;24.742;2023-05-27T08:21:54;6.50;;;4.00;;
20894;SDS011;10607;42.066;24.742;2023-05-27T08:24:21;3.80;;;3.40;;
20894;SDS011;10607;42.066;24.742;2023-05-27T08:26:47;6.53;;;4.00;;
20894;SDS011;10607;42.066;24.742;2023-05-27T08:29:12;7.40;;;3.85;;
20894;SDS011;10607;42.066;24.742;2023-05-27T08:31:37;10.75;;;3.50;;
20894;SDS011;10607;42.066;24.742;2023-05-27T08:34:03;5.90;;;3.58;;
20894;SDS011;10607;42.066;24.742;2023-05-27T08:36:28;7.70;;;4.00;;
20894;SDS011;10607;42.066;24.742;2023-05-27T08:38:54;8.27;;;3.75;;
20894;SDS011;10607;42.066;24.742;2023-05-27T08:41:19;5.93;;;3.95;;
20894;SDS011;10607;42.066;24.742;2023-05-27T08:43:45;5.63;;;4.57;;
20894;SDS011;10607;42.066;24.742;2023-05-27T08:46:10;6.68;;;4.40;;
20894;SDS011;10607;42.066;24.742;2023-05-27T08:48:36;6.15;;;3.72;;
20894;SDS011;10607;42.066;24.742;2023-05-27T08:51:02;4.88;;;4.28;;
20894;SDS011;10607;42.066;24.742;2023-05-27T08:53:28;7.97;;;4.47;;
20894;SDS011;10607;42.066;24.742;2023-05-27T08:55:54;5.50;;;3.75;;
20894;SDS011;10607;42.066;24.742;2023-05-27T08:58:21;5.50;;;3.75;;
20894;SDS011;10607;42.066;24.742;2023-05-27T09:00:47;5.72;;;3.95;;
20894;SDS011;10607;42.066;24.742;2023-05-27T09:03:12;5.15;;;4.63;;
20894;SDS011;10607;42.066;24.742;2023-05-27T09:05:38;8.02;;;4.15;;
20894;SDS011;10607;42.066;24.742;2023-05-27T09:08:03;6.13;;;3.63;;
20894;SDS011;10607;42.066;24.742;2023-05-27T09:10:35;5.22;;;3.13;;
20894;SDS011;10607;42.066;24.742;2023-05-27T09:13:01;5.65;;;3.88;;
20894;SDS011;10607;42.066;24.742;2023-05-27T09:15:26;6.55;;;4.68;;
20894;SDS011;10607;42.066;24.742;2023-05-27T09:17:51;12.30;;;3.85;;
20894;SDS011;10607;42.066;24.742;2023-05-27T09:20:23;7.55;;;3.55;;
20894;SDS011;10607;42.066;24.742;2023-05-27T09:22:49;7.18;;;3.70;;
20894;SDS011;10607;42.066;24.742;2023-05-27T09:25:14;5.07;;;3.97;;
20894;SDS011;10607;42.066;24.742;2023-05-27T09:27:42;8.13;;;3.55;;
20894;SDS011;10607;42.066;24.742;2023-05-27T09:30:08;5.07;;;3.70;;
20894;SDS011;10607;42.066;24.742;2023-05-27T09:32:33;9.93;;;3.83;;
20894;SDS011;10607;42.066;24.742;2023-05-27T09:34:59;5.82;;;3.90;;
20894;SDS011;10607;42.066;24.742;2023-05-27T09:37:26;6.85;;;4.00;;
20894;SDS011;10607;42.066;24.742;2023-05-27T09:39:57;4.30;;;3.90;;
20894;SDS011;10607;42.066;24.742;2023-05-27T09:42:22;6.03;;;4.30;;
20894;SDS011;10607;42.066;24.742;2023-05-27T09:44:47;7.30;;;3.83;;
20894;SDS011;10607;42.066;24.742;2023-05-27T09:47:13;11.70;;;3.92;;
20894;SDS011;10607;42.066;24.742;2023-05-27T09:49:40;8.93;;;4.03;;
20894;SDS011;10607;42.066;24.742;2023-05-27T09:52:07;9.77;;;4.25;;
20894;SDS011;10607;42.066;24.742;2023-05-27T09:54:34;9.25;;;5.32;;
20894;SDS011;10607;42.066;24.742;2023-05-27T09:57:01;6.75;;;4.30;;
20894;SDS011;10607;42.066;24.742;2023-05-27T09:59:26;10.10;;;5.25;;
20894;SDS011;10607;42.066;24.742;2023-05-27T10:01:51;8.57;;;4.47;;
20894;SDS011;10607;42.066;24.742;2023-05-27T10:04:18;9.50;;;5.22;;
20894;SDS011;10607;42.066;24.742;2023-05-27T10:06:44;10.35;;;8.38;;
20894;SDS011;10607;42.066;24.742;2023-05-27T10:09:10;21.08;;;18.17;;
20894;SDS011;10607;42.066;24.742;2023-05-27T10:11:35;17.58;;;10.93;;
20894;SDS011;10607;42.066;24.742;2023-05-27T10:14:02;34.53;;;24.83;;
20894;SDS011;10607;42.066;24.742;2023-05-27T10:16:28;39.95;;;24.77;;
20894;SDS011;10607;42.066;24.742;2023-05-27T10:18:54;37.10;;;26.55;;
20894;SDS011;10607;42.066;24.742;2023-05-27T10:21:20;35.00;;;23.33;;
20894;SDS011;10607;42.066;24.742;2023-05-27T10:24:19;16.30;;;6.82;;
20894;SDS011;10607;42.066;24.742;2023-05-27T10:26:44;12.98;;;5.63;;
20894;SDS011;10607;42.066;24.742;2023-05-27T10:29:13;7.80;;;4.75;;
20894;SDS011;10607;42.066;24.742;2023-05-27T10:31:51;5.07;;;4.43;;
20894;SDS011;10607;42.066;24.742;2023-05-27T10:34:17;6.30;;;4.20;;
20894;SDS011;10607;42.066;24.742;2023-05-27T10:36:46;5.78;;;3.50;;
20894;SDS011;10607;42.066;24.742;2023-05-27T10:39:12;10.77;;;4.40;;
20894;SDS011;10607;42.066;24.742;2023-05-27T10:44:28;7.60;;;4.05;;
20894;SDS011;10607;42.066;24.742;2023-05-27T10:47:04;5.28;;;4.75;;
20894;SDS011;10607;42.066;24.742;2023-05-27T10:49:37;8.40;;;3.03;;
20894;SDS011;10607;42.066;24.742;2023-05-27T10:52:16;3.63;;;2.55;;
20894;SDS011;10607;42.066;24.742;2023-05-27T10:54:45;4.03;;;2.90;;
20894;SDS011;10607;42.066;24.742;2023-05-27T10:57:12;4.47;;;2.92;;
20894;SDS011;10607;42.066;24.742;2023-05-27T10:59:53;9.88;;;3.08;;
20894;SDS011;10607;42.066;24.742;2023-05-27T11:02:20;6.63;;;2.22;;
20894;SDS011;10607;42.066;24.742;2023-05-27T11:04:47;8.52;;;2.33;;
20894;SDS011;10607;42.066;24.742;2023-05-27T11:07:22;5.03;;;2.63;;
20894;SDS011;10607;42.066;24.742;2023-05-27T11:09:50;3.53;;;2.25;;
20894;SDS011;10607;42.066;24.742;2023-05-27T11:12:17;7.13;;;2.80;;
20894;SDS011;10607;42.066;24.742;2023-05-27T11:14:46;13.45;;;4.65;;
20894;SDS011;10607;42.066;24.742;2023-05-27T11:17:12;14.52;;;5.25;;
20894;SDS011;10607;42.066;24.742;2023-05-27T11:19:38;9.18;;;2.03;;
20894;SDS011;10607;42.066;24.742;2023-05-27T11:22:04;6.50;;;1.92;;
20894;SDS011;10607;42.066;24.742;2023-05-27T11:24:30;2.92;;;1.67;;
20894;SDS011;10607;42.066;24.742;2023-05-27T11:26:56;3.03;;;1.67;;
20894;SDS011;10607;42.066;24.742;2023-05-27T11:29:22;4.35;;;1.83;;
20894;SDS011;10607;42.066;24.742;2023-05-27T11:31:48;5.22;;;1.58;;
20894;SDS011;10607;42.066;24.742;2023-05-27T11:34:13;8.75;;;1.67;;
20894;SDS011;10607;42.066;24.742;2023-05-27T11:36:39;2.67;;;1.35;;
20894;SDS011;10607;42.066;24.742;2023-05-27T11:39:04;2.58;;;1.73;;
20894;SDS011;10607;42.066;24.742;2023-05-27T11:41:30;2.40;;;1.40;;
20894;SDS011;10607;42.066;24.742;2023-05-27T11:46:21;3.08;;;1.38;;
20894;SDS011;10607;42.066;24.742;2023-05-27T11:48:47;5.13;;;1.73;;
20894;SDS011;10607;42.066;24.742;2023-05-27T11:51:12;3.63;;;1.73;;
20894;SDS011;10607;42.066;24.742;2023-05-27T11:53:43;2.97;;;1.63;;
20894;SDS011;10607;42.066;24.742;2023-05-27T11:56:08;4.28;;;1.70;;
20894;SDS011;10607;42.066;24.742;2023-05-27T11:58:34;5.43;;;1.90;;
20894;SDS011;10607;42.066;24.742;2023-05-27T12:00:59;10.77;;;7.95;;
20894;SDS011;10607;42.066;24.742;2023-05-27T12:03:25;10.18;;;6.30;;
20894;SDS011;10607;42.066;24.742;2023-05-27T12:05:50;5.07;;;1.88;;
20894;SDS011;10607;42.066;24.742;2023-05-27T12:08:16;5.43;;;1.73;;
20894;SDS011;10607;42.066;24.742;2023-05-27T12:10:41;3.28;;;1.80;;
20894;SDS011;10607;42.066;24.742;2023-05-27T12:13:06;2.83;;;1.73;;
20894;SDS011;10607;42.066;24.742;2023-05-27T12:15:32;5.22;;;1.73;;
20894;SDS011;10607;42.066;24.742;2023-05-27T12:17:57;4.30;;;1.77;;
20894;SDS011;10607;42.066;24.742;2023-05-27T12:20:23;4.55;;;2.10;;
20894;SDS011;10607;42.066;24.742;2023-05-27T12:22:52;5.20;;;1.98;;
20894;SDS011;10607;42.066;24.742;2023-05-27T12:25:17;5.50;;;1.92;;
20894;SDS011;10607;42.066;24.742;2023-05-27T12:27:43;2.85;;;1.95;;
20894;SDS011;10607;42.066;24.742;2023-05-27T12:30:09;8.57;;;2.20;;
20894;SDS011;10607;42.066;24.742;2023-05-27T12:32:34;5.60;;;2.15;;
20894;SDS011;10607;42.066;24.742;2023-05-27T12:35:00;2.40;;;1.63;;
20894;SDS011;10607;42.066;24.742;2023-05-27T12:37:25;6.25;;;2.00;;
20894;SDS011;10607;42.066;24.742;2023-05-27T12:39:53;2.75;;;1.92;;
20894;SDS011;10607;42.066;24.742;2023-05-27T12:42:18;6.38;;;2.38;;
20894;SDS011;10607;42.066;24.742;2023-05-27T12:44:43;2.63;;;1.80;;
20894;SDS011;10607;42.066;24.742;2023-05-27T12:47:08;3.83;;;2.08;;
20894;SDS011;10607;42.066;24.742;2023-05-27T12:49:35;3.17;;;2.30;;
20894;SDS011;10607;42.066;24.742;2023-05-27T12:52:01;5.10;;;2.28;;
20894;SDS011;10607;42.066;24.742;2023-05-27T12:54:27;5.40;;;2.20;;
20894;SDS011;10607;42.066;24.742;2023-05-27T12:56:53;5.47;;;2.10;;
20894;SDS011;10607;42.066;24.742;2023-05-27T12:59:18;4.57;;;2.33;;
20894;SDS011;10607;42.066;24.742;2023-05-27T13:01:43;3.97;;;1.83;;
20894;SDS011;10607;42.066;24.742;2023-05-27T13:04:09;6.82;;;2.25;;
20894;SDS011;10607;42.066;24.742;2023-05-27T13:06:34;2.95;;;2.03;;
20894;SDS011;10607;42.066;24.742;2023-05-27T13:08:59;7.43;;;2.50;;
20894;SDS011;10607;42.066;24.742;2023-05-27T13:11:25;4.32;;;2.28;;
20894;SDS011;10607;42.066;24.742;2023-05-27T13:13:51;3.83;;;2.95;;
20894;SDS011;10607;42.066;24.742;2023-05-27T13:16:16;3.70;;;2.75;;
20894;SDS011;10607;42.066;24.742;2023-05-27T13:18:41;3.85;;;2.70;;
20894;SDS011;10607;42.066;24.742;2023-05-27T13:21:07;5.88;;;2.53;;
20894;SDS011;10607;42.066;24.742;2023-05-27T13:23:33;3.40;;;2.50;;
20894;SDS011;10607;42.066;24.742;2023-05-27T13:25:58;9.27;;;2.85;;
20894;SDS011;10607;42.066;24.742;2023-05-27T13:28:23;6.43;;;2.60;;
20894;SDS011;10607;42.066;24.742;2023-05-27T13:30:49;3.10;;;2.65;;
20894;SDS011;10607;42.066;24.742;2023-05-27T13:33:14;7.30;;;2.92;;
20894;SDS011;10607;42.066;24.742;2023-05-27T13:35:40;6.50;;;2.75;;
20894;SDS011;10607;42.066;24.742;2023-05-27T13:38:06;9.13;;;3.03;;
20894;SDS011;10607;42.066;24.742;2023-05-27T13:40:37;4.32;;;2.55;;
20894;SDS011;10607;42.066;24.742;2023-05-27T13:43:02;7.43;;;3.13;;
20894;SDS011;10607;42.066;24.742;2023-05-27T13:45:27;4.00;;;2.35;;
20894;SDS011;10607;42.066;24.742;2023-05-27T13:47:53;6.53;;;2.40;;
20894;SDS011;10607;42.066;24.742;2023-05-27T13:50:18;6.80;;;2.70;;
20894;SDS011;10607;42.066;24.742;2023-05-27T13:52:44;7.78;;;2.92;;
20894;SDS011;10607;42.066;24.742;2023-05-27T13:55:10;3.78;;;2.65;;
20894;SDS011;10607;42.066;24.742;2023-05-27T13:57:35;12.30;;;3.00;;
20894;SDS011;10607;42.066;24.742;2023-05-27T14:00:00;8.75;;;2.50;;
20894;SDS011;10607;42.066;24.742;2023-05-27T14:02:26;21.23;;;3.40;;
20894;SDS011;10607;42.066;24.742;2023-05-27T14:04:51;9.00;;;3.05;;
20894;SDS011;10607;42.066;24.742;2023-05-27T14:07:17;8.20;;;3.13;;
20894;SDS011;10607;42.066;24.742;2023-05-27T14:09:42;6.05;;;2.60;;
20894;SDS011;10607;42.066;24.742;2023-05-27T14:12:07;9.30;;;3.10;;
20894;SDS011;10607;42.066;24.742;2023-05-27T14:14:33;4.93;;;3.35;;
20894;SDS011;10607;42.066;24.742;2023-05-27T14:16:58;6.53;;;2.63;;
20894;SDS011;10607;42.066;24.742;2023-05-27T14:19:23;7.82;;;2.80;;
20894;SDS011;10607;42.066;24.742;2023-05-27T14:21:49;6.82;;;2.80;;
20894;SDS011;10607;42.066;24.742;2023-05-27T14:24:14;4.22;;;2.83;;
20894;SDS011;10607;42.066;24.742;2023-05-27T14:26:40;9.15;;;2.72;;
20894;SDS011;10607;42.066;24.742;2023-05-27T14:29:06;8.05;;;2.83;;
20894;SDS011;10607;42.066;24.742;2023-05-27T14:31:31;8.80;;;3.40;;
20894;SDS011;10607;42.066;24.742;2023-05-27T14:33:56;7.28;;;3.20;;